createdAt,value
2023-04-27T00:00:42.216Z,0.00
2023-04-27T00:01:41.280Z,0.00
2023-04-27T00:02:41.304Z,0.00
2023-04-27T00:03:41.396Z,0.00
2023-04-27T00:04:41.554Z,0.00
2023-04-27T00:05:41.287Z,0.00
2023-04-27T00:06:41.198Z,0.00
2023-04-27T00:07:41.163Z,0.00
2023-04-27T00:08:41.201Z,0.00
2023-04-27T00:09:41.138Z,0.00
2023-04-27T00:10:41.192Z,0.00
2023-04-27T00:11:41.122Z,0.00
2023-04-27T00:12:42.265Z,0.00
2023-04-27T00:13:41.122Z,0.00
2023-04-27T00:14:41.142Z,0.00
2023-04-27T00:15:41.129Z,0.00
2023-04-27T00:16:41.149Z,0.00
2023-04-27T00:17:41.105Z,0.00
2023-04-27T00:18:41.081Z,0.00
2023-04-27T00:19:41.847Z,0.00
2023-04-27T00:20:41.081Z,0.00
2023-04-27T00:21:41.026Z,0.00
2023-04-27T00:22:41.738Z,0.00
2023-04-27T00:23:41.036Z,0.00
2023-04-27T00:24:40.997Z,0.00
2023-04-27T00:25:41.047Z,0.00
2023-04-27T00:26:41.023Z,0.00
2023-04-27T00:27:41.799Z,0.00
2023-04-27T00:28:40.967Z,0.00
2023-04-27T00:29:41.004Z,0.00
2023-04-27T00:30:40.996Z,0.00
2023-04-27T00:31:40.962Z,0.00
2023-04-27T00:32:40.962Z,0.00
2023-04-27T00:33:40.905Z,0.00
2023-04-27T00:34:40.924Z,0.00
2023-04-27T00:35:40.904Z,0.00
2023-04-27T00:36:40.892Z,0.00
2023-04-27T00:37:40.895Z,0.00
2023-04-27T00:38:40.898Z,0.00
2023-04-27T00:39:41.948Z,0.00
2023-04-27T00:40:40.902Z,0.00
2023-04-27T00:41:40.984Z,0.00
2023-04-27T00:42:40.847Z,0.00
2023-04-27T00:43:40.812Z,0.00
2023-04-27T00:44:40.804Z,0.00
2023-04-27T00:45:40.817Z,0.00
2023-04-27T00:46:40.806Z,0.00
2023-04-27T00:47:40.823Z,0.00
2023-04-27T00:48:40.763Z,0.00
2023-04-27T00:49:40.772Z,0.00
2023-04-27T00:50:40.743Z,0.00
2023-04-27T00:51:40.738Z,0.00
2023-04-27T00:52:40.768Z,0.00
2023-04-27T00:53:40.707Z,0.00
2023-04-27T00:54:41.499Z,0.00
2023-04-27T00:55:40.675Z,0.00
2023-04-27T00:56:47.206Z,0.00
2023-04-27T00:57:40.700Z,0.00
2023-04-27T00:58:40.661Z,0.00
2023-04-27T00:59:40.693Z,0.00
2023-04-27T01:00:40.654Z,0.00
2023-04-27T01:01:40.713Z,0.00
2023-04-27T01:02:40.807Z,0.00
2023-04-27T01:03:40.730Z,0.00
2023-04-27T01:04:40.648Z,0.00
2023-04-27T01:05:40.583Z,0.00
2023-04-27T01:06:40.577Z,0.00
2023-04-27T01:07:40.558Z,0.00
2023-04-27T01:08:40.604Z,0.00
2023-04-27T01:09:40.563Z,0.00
2023-04-27T01:10:40.562Z,0.00
2023-04-27T01:11:40.545Z,0.00
2023-04-27T01:12:41.260Z,0.00
2023-04-27T01:13:40.528Z,0.00
2023-04-27T01:14:40.505Z,0.00
2023-04-27T01:15:40.473Z,0.00
2023-04-27T01:16:40.572Z,0.00
2023-04-27T01:17:40.490Z,0.00
2023-04-27T01:18:40.475Z,0.00
2023-04-27T01:19:40.421Z,0.00
2023-04-27T01:20:41.769Z,0.00
2023-04-27T01:21:40.427Z,0.00
2023-04-27T01:22:40.441Z,0.00
2023-04-27T01:23:40.421Z,0.00
2023-04-27T01:24:40.442Z,0.00
2023-04-27T01:25:40.387Z,0.00
2023-04-27T01:26:40.405Z,0.00
2023-04-27T01:27:40.348Z,0.00
2023-04-27T01:28:40.353Z,0.00
2023-04-27T01:29:40.365Z,0.00
2023-04-27T01:30:40.350Z,0.00
2023-04-27T01:31:40.478Z,0.00
2023-04-27T01:32:40.338Z,0.00
2023-04-27T01:33:40.294Z,0.00
2023-04-27T01:34:40.347Z,0.00
2023-04-27T01:35:40.280Z,0.00
2023-04-27T01:36:40.297Z,0.00
2023-04-27T01:37:40.250Z,0.00
2023-04-27T01:38:40.306Z,0.00
2023-04-27T01:39:40.280Z,0.00
2023-04-27T01:40:41.567Z,0.00
2023-04-27T01:41:40.223Z,0.00
2023-04-27T01:42:40.235Z,0.00
2023-04-27T01:43:40.188Z,0.00
2023-04-27T01:44:40.215Z,0.00
2023-04-27T01:45:40.166Z,0.00
2023-04-27T01:46:40.327Z,0.00
2023-04-27T01:47:40.187Z,0.00
2023-04-27T01:48:40.192Z,0.00
2023-04-27T01:49:40.158Z,0.00
2023-04-27T01:50:40.157Z,0.00
2023-04-27T01:51:41.707Z,0.00
2023-04-27T01:52:41.173Z,0.00
2023-04-27T01:53:40.088Z,0.00
2023-04-27T01:54:40.134Z,0.00
2023-04-27T01:55:40.103Z,0.00
2023-04-27T01:56:40.104Z,0.00
2023-04-27T01:57:40.082Z,0.00
2023-04-27T01:58:40.068Z,0.00
2023-04-27T01:59:40.083Z,0.00
2023-04-27T02:00:40.074Z,0.00
2023-04-27T02:01:40.033Z,0.00
2023-04-27T02:02:40.122Z,0.00
2023-04-27T02:03:40.213Z,0.00
2023-04-27T02:04:40.124Z,0.00
2023-04-27T02:05:40.020Z,0.00
2023-04-27T02:06:39.976Z,0.00
2023-04-27T02:07:39.987Z,0.00
2023-04-27T02:08:39.971Z,0.00
2023-04-27T02:09:39.963Z,0.00
2023-04-27T02:10:39.938Z,0.00
2023-04-27T02:11:39.929Z,0.00
2023-04-27T02:12:39.925Z,0.00
2023-04-27T02:13:40.716Z,0.00
2023-04-27T02:14:39.943Z,0.00
2023-04-27T02:15:41.366Z,0.00
2023-04-27T02:16:40.038Z,0.00
2023-04-27T02:17:39.901Z,0.00
2023-04-27T02:18:39.855Z,0.00
2023-04-27T02:19:39.852Z,0.00
2023-04-27T02:20:39.854Z,0.00
2023-04-27T02:21:39.870Z,0.00
2023-04-27T02:22:39.808Z,0.00
2023-04-27T02:23:39.831Z,0.00
2023-04-27T02:24:39.841Z,0.00
2023-04-27T02:25:39.803Z,0.00
2023-04-27T02:26:39.781Z,0.00
2023-04-27T02:27:39.791Z,0.00
2023-04-27T02:28:39.762Z,0.00
2023-04-27T02:29:43.743Z,0.00
2023-04-27T02:30:39.751Z,0.00
2023-04-27T02:31:39.759Z,0.00
2023-04-27T02:32:39.798Z,0.00
2023-04-27T02:33:39.696Z,0.00
2023-04-27T02:34:39.731Z,0.00
2023-04-27T02:35:39.681Z,0.00
2023-04-27T02:36:39.700Z,0.00
2023-04-27T02:37:41.225Z,0.00
2023-04-27T02:38:39.701Z,0.00
2023-04-27T02:39:40.695Z,0.00
2023-04-27T02:40:39.652Z,0.00
2023-04-27T02:41:39.599Z,0.00
2023-04-27T02:42:39.638Z,0.00
2023-04-27T02:43:39.626Z,0.00
2023-04-27T02:44:39.603Z,0.00
2023-04-27T02:45:39.590Z,0.00
2023-04-27T02:46:39.617Z,0.00
2023-04-27T02:47:39.562Z,0.00
2023-04-27T02:48:42.821Z,0.00
2023-04-27T02:49:41.308Z,0.00
2023-04-27T02:50:39.538Z,0.00
2023-04-27T02:51:39.534Z,0.00
2023-04-27T02:52:39.528Z,0.00
2023-04-27T02:53:39.500Z,0.00
2023-04-27T02:54:39.501Z,0.00
2023-04-27T02:55:39.467Z,0.00
2023-04-27T02:56:39.483Z,0.00
2023-04-27T02:57:39.479Z,0.00
2023-04-27T02:58:39.459Z,0.00
2023-04-27T02:59:39.462Z,0.00
2023-04-27T03:00:39.480Z,0.00
2023-04-27T03:01:41.174Z,0.00
2023-04-27T03:02:39.561Z,0.00
2023-04-27T03:03:39.589Z,0.00
2023-04-27T03:04:39.507Z,0.00
2023-04-27T03:05:39.373Z,0.00
2023-04-27T03:06:39.434Z,0.00
2023-04-27T03:07:39.363Z,0.00
2023-04-27T03:08:39.370Z,0.00
2023-04-27T03:09:39.290Z,0.00
2023-04-27T03:10:39.327Z,0.00
2023-04-27T03:11:39.321Z,0.00
2023-04-27T03:12:39.292Z,0.00
2023-04-27T03:13:39.281Z,0.00
2023-04-27T03:14:39.232Z,0.00
2023-04-27T03:15:39.281Z,0.00
2023-04-27T03:16:39.280Z,0.00
2023-04-27T03:17:39.295Z,0.00
2023-04-27T03:18:39.245Z,0.00
2023-04-27T03:19:40.646Z,0.00
2023-04-27T03:20:39.275Z,0.00
2023-04-27T03:21:39.238Z,0.00
2023-04-27T03:22:39.158Z,0.00
2023-04-27T03:23:39.169Z,0.00
2023-04-27T03:24:39.155Z,0.00
2023-04-27T03:25:39.155Z,0.00
2023-04-27T03:26:39.132Z,0.00
2023-04-27T03:27:39.115Z,0.00
2023-04-27T03:28:39.094Z,0.00
2023-04-27T03:29:39.127Z,0.00
2023-04-27T03:30:39.087Z,0.00
2023-04-27T03:31:39.109Z,0.00
2023-04-27T03:32:42.148Z,0.00
2023-04-27T03:33:39.038Z,0.00
2023-04-27T03:34:39.047Z,0.00
2023-04-27T03:35:39.037Z,0.00
2023-04-27T03:36:39.032Z,0.00
2023-04-27T03:37:39.026Z,0.00
2023-04-27T03:38:40.197Z,0.00
2023-04-27T03:39:39.045Z,0.00
2023-04-27T03:40:38.978Z,0.00
2023-04-27T03:41:38.961Z,0.00
2023-04-27T03:42:38.972Z,0.00
2023-04-27T03:43:38.935Z,0.00
2023-04-27T03:44:39.009Z,0.00
2023-04-27T03:45:39.889Z,0.00
2023-04-27T03:46:39.844Z,0.00
2023-04-27T03:47:38.984Z,0.00
2023-04-27T03:48:40.629Z,0.00
2023-04-27T03:49:38.920Z,0.00
2023-04-27T03:50:38.854Z,0.00
2023-04-27T03:51:38.880Z,0.00
2023-04-27T03:52:38.866Z,0.00
2023-04-27T03:53:38.848Z,0.00
2023-04-27T03:54:38.849Z,5.62
2023-04-27T03:55:38.873Z,5.62
2023-04-27T03:56:38.806Z,5.62
2023-04-27T03:57:38.811Z,5.62
2023-04-27T03:58:39.062Z,5.62
2023-04-27T03:59:38.825Z,5.62
2023-04-27T04:00:38.769Z,5.62
2023-04-27T04:01:38.888Z,5.62
2023-04-27T04:02:38.828Z,5.62
2023-04-27T04:03:40.633Z,5.62
2023-04-27T04:04:38.998Z,5.62
2023-04-27T04:05:38.751Z,5.62
2023-04-27T04:06:38.728Z,5.62
2023-04-27T04:07:40.364Z,5.62
2023-04-27T04:08:40.548Z,11.25
2023-04-27T04:09:40.029Z,11.25
2023-04-27T04:10:38.688Z,11.25
2023-04-27T04:11:38.760Z,11.25
2023-04-27T04:12:38.636Z,11.25
2023-04-27T04:13:38.681Z,11.25
2023-04-27T04:14:38.624Z,11.25
2023-04-27T04:15:39.623Z,11.25
2023-04-27T04:16:38.623Z,11.25
2023-04-27T04:17:38.667Z,11.25
2023-04-27T04:18:39.726Z,11.25
2023-04-27T04:19:38.613Z,11.25
2023-04-27T04:20:38.581Z,11.25
2023-04-27T04:21:38.563Z,11.25
2023-04-27T04:22:38.576Z,11.25
2023-04-27T04:23:38.556Z,16.88
2023-04-27T04:24:39.738Z,16.88
2023-04-27T04:25:38.558Z,16.88
2023-04-27T04:26:38.565Z,16.88
2023-04-27T04:27:38.539Z,16.88
2023-04-27T04:28:38.497Z,16.88
2023-04-27T04:29:38.504Z,22.50
2023-04-27T04:30:38.532Z,22.50
2023-04-27T04:31:38.620Z,22.50
2023-04-27T04:32:39.684Z,22.50
2023-04-27T04:33:38.473Z,22.50
2023-04-27T04:34:38.425Z,22.50
2023-04-27T04:35:38.472Z,28.12
2023-04-27T04:36:38.413Z,28.12
2023-04-27T04:37:38.430Z,28.12
2023-04-27T04:38:38.382Z,28.12
2023-04-27T04:39:38.392Z,28.12
2023-04-27T04:40:38.376Z,33.75
2023-04-27T04:41:38.375Z,33.75
2023-04-27T04:42:39.287Z,33.75
2023-04-27T04:43:38.338Z,33.75
2023-04-27T04:44:38.346Z,33.75
2023-04-27T04:45:38.331Z,39.38
2023-04-27T04:46:38.428Z,39.38
2023-04-27T04:47:38.330Z,39.38
2023-04-27T04:48:38.384Z,39.38
2023-04-27T04:49:38.305Z,39.38
2023-04-27T04:50:38.266Z,39.38
2023-04-27T04:51:38.277Z,39.38
2023-04-27T04:52:38.275Z,39.38
2023-04-27T04:53:38.268Z,45.00
2023-04-27T04:54:38.235Z,45.00
2023-04-27T04:55:38.221Z,45.00
2023-04-27T04:56:38.208Z,45.00
2023-04-27T04:57:38.255Z,45.00
2023-04-27T04:58:38.184Z,45.00
2023-04-27T04:59:38.186Z,45.00
2023-04-27T05:00:38.190Z,45.00
2023-04-27T05:01:44.211Z,50.62
2023-04-27T05:02:39.423Z,50.62
2023-04-27T05:03:38.360Z,50.62
2023-04-27T05:04:38.247Z,50.62
2023-04-27T05:05:39.749Z,50.62
2023-04-27T05:06:38.115Z,50.62
2023-04-27T05:07:38.083Z,50.62
2023-04-27T05:08:39.728Z,50.62
2023-04-27T05:09:38.845Z,56.25
2023-04-27T05:10:38.077Z,56.25
2023-04-27T05:11:38.737Z,56.25
2023-04-27T05:12:38.072Z,56.25
2023-04-27T05:13:38.060Z,56.25
2023-04-27T05:14:38.768Z,56.25
2023-04-27T05:15:38.059Z,61.88
2023-04-27T05:16:38.867Z,61.88
2023-04-27T05:17:38.052Z,61.88
2023-04-27T05:18:37.999Z,61.88
2023-04-27T05:19:38.036Z,61.88
2023-04-27T05:20:37.967Z,67.50
2023-04-27T05:21:38.024Z,67.50
2023-04-27T05:22:37.949Z,67.50
2023-04-27T05:23:37.964Z,67.50
2023-04-27T05:24:39.500Z,73.12
2023-04-27T05:25:38.644Z,73.12
2023-04-27T05:26:39.967Z,73.12
2023-04-27T05:27:39.516Z,73.12
2023-04-27T05:28:39.549Z,73.12
2023-04-27T05:29:38.853Z,73.12
2023-04-27T05:30:38.486Z,73.12
2023-04-27T05:31:37.907Z,78.75
2023-04-27T05:32:37.924Z,78.75
2023-04-27T05:33:38.614Z,84.38
2023-04-27T05:34:37.818Z,84.38
2023-04-27T05:35:38.386Z,84.38
2023-04-27T05:36:37.876Z,84.38
2023-04-27T05:37:37.837Z,84.38
2023-04-27T05:38:38.196Z,84.38
2023-04-27T05:39:37.787Z,84.38
2023-04-27T05:40:37.757Z,90.00
2023-04-27T05:41:37.777Z,90.00
2023-04-27T05:42:39.404Z,90.00
2023-04-27T05:43:37.728Z,90.00
2023-04-27T05:44:37.817Z,90.00
2023-04-27T05:45:38.373Z,90.00
2023-04-27T05:46:38.804Z,84.38
2023-04-27T05:47:37.756Z,90.00
2023-04-27T05:48:37.874Z,90.00
2023-04-27T05:49:39.588Z,90.00
2023-04-27T05:50:37.675Z,84.38
2023-04-27T05:51:38.419Z,84.38
2023-04-27T05:52:38.526Z,84.38
2023-04-27T05:53:39.051Z,84.38
2023-04-27T05:54:37.748Z,90.00
2023-04-27T05:55:38.366Z,101.25
2023-04-27T05:56:37.699Z,106.88
2023-04-27T05:57:37.688Z,101.25
2023-04-27T05:58:37.591Z,101.25
2023-04-27T06:02:21.585Z,236.25
2023-04-27T06:03:22.739Z,258.75
2023-04-27T06:04:22.550Z,258.75
2023-04-27T06:05:22.266Z,275.62
2023-04-27T06:06:22.194Z,382.50
2023-04-27T06:07:24.120Z,495.00
2023-04-27T06:08:23.208Z,286.88
2023-04-27T06:09:23.350Z,286.88
2023-04-27T06:10:22.153Z,736.88
2023-04-27T06:11:22.800Z,331.88
2023-04-27T06:12:22.147Z,275.62
2023-04-27T06:13:22.187Z,590.62
2023-04-27T06:14:22.091Z,298.12
2023-04-27T06:15:22.768Z,286.88
2023-04-27T06:16:23.770Z,281.25
2023-04-27T06:17:22.767Z,309.38
2023-04-27T06:18:22.072Z,331.88
2023-04-27T06:19:25.850Z,286.88
2023-04-27T06:20:23.628Z,618.75
2023-04-27T06:21:23.637Z,393.75
2023-04-27T06:22:22.015Z,883.12
2023-04-27T06:23:22.773Z,866.25
2023-04-27T06:24:23.612Z,950.62
2023-04-27T06:25:23.268Z,838.12
2023-04-27T06:26:22.029Z,742.50
2023-04-27T06:27:22.007Z,933.75
2023-04-27T06:28:21.968Z,973.12
2023-04-27T06:29:22.033Z,978.75
2023-04-27T06:30:21.965Z,1035.00
2023-04-27T06:31:22.090Z,1046.25
2023-04-27T06:32:21.916Z,1057.50
2023-04-27T06:33:21.978Z,1035.00
2023-04-27T06:34:21.905Z,1080.00
2023-04-27T06:35:21.906Z,1147.50
2023-04-27T06:36:21.880Z,1108.12
2023-04-27T06:37:22.722Z,871.88
2023-04-27T06:38:21.877Z,1001.25
2023-04-27T06:39:21.839Z,731.25
2023-04-27T06:40:22.535Z,753.75
2023-04-27T06:41:21.874Z,556.88
2023-04-27T06:42:21.881Z,393.75
2023-04-27T06:43:21.806Z,337.50
2023-04-27T06:44:21.773Z,326.25
2023-04-27T06:45:21.806Z,393.75
2023-04-27T06:46:21.837Z,703.12
2023-04-27T06:47:21.790Z,922.50
2023-04-27T06:48:21.794Z,866.25
2023-04-27T06:49:21.746Z,303.75
2023-04-27T06:50:21.744Z,1355.62
2023-04-27T06:51:21.770Z,1276.88
2023-04-27T06:52:21.702Z,1158.75
2023-04-27T06:53:21.734Z,1175.62
2023-04-27T06:54:21.698Z,1006.88
2023-04-27T06:55:22.244Z,1029.38
2023-04-27T06:56:21.668Z,1102.50
2023-04-27T06:57:21.668Z,1350.00
2023-04-27T06:58:21.653Z,922.50
2023-04-27T06:59:21.657Z,1035.00
2023-04-27T07:00:21.600Z,703.12
2023-04-27T07:01:21.749Z,534.38
2023-04-27T07:02:23.151Z,607.50
2023-04-27T07:03:21.797Z,1434.38
2023-04-27T07:04:21.875Z,2874.38
2023-04-27T07:05:22.257Z,871.88
2023-04-27T07:06:21.603Z,753.75
2023-04-27T07:07:21.607Z,900.00
2023-04-27T07:08:21.533Z,748.12
2023-04-27T07:10:21.493Z,517.50
2023-04-27T07:11:21.576Z,781.88
2023-04-27T07:12:21.553Z,461.25
2023-04-27T07:13:23.177Z,489.38
2023-04-27T07:14:21.528Z,978.75
2023-04-27T07:15:21.459Z,686.25
2023-04-27T07:16:21.489Z,540.00
2023-04-27T07:17:21.485Z,495.00
2023-04-27T07:18:21.452Z,438.75
2023-04-27T07:19:21.495Z,399.38
2023-04-27T07:20:21.403Z,427.50
2023-04-27T07:21:22.024Z,405.00
2023-04-27T07:22:22.325Z,399.38
2023-04-27T07:23:22.416Z,416.25
2023-04-27T07:24:24.104Z,427.50
2023-04-27T07:25:21.359Z,416.25
2023-04-27T07:26:21.538Z,410.62
2023-04-27T07:27:21.336Z,405.00
2023-04-27T07:28:21.380Z,405.00
2023-04-27T07:29:27.070Z,410.62
2023-04-27T07:30:22.240Z,388.12
2023-04-27T07:31:21.369Z,416.25
2023-04-27T07:32:21.331Z,360.00
2023-04-27T07:33:21.386Z,331.88
2023-04-27T07:34:21.254Z,331.88
2023-04-27T07:35:21.250Z,343.12
2023-04-27T07:36:21.268Z,360.00
2023-04-27T07:37:21.363Z,371.25
2023-04-27T07:38:21.262Z,399.38
2023-04-27T07:39:21.252Z,438.75
2023-04-27T07:40:21.244Z,472.50
2023-04-27T07:41:21.237Z,523.12
2023-04-27T07:42:21.206Z,444.38
2023-04-27T07:43:21.195Z,421.88
2023-04-27T07:44:21.195Z,433.12
2023-04-27T07:45:21.149Z,427.50
2023-04-27T07:46:21.169Z,466.88
2023-04-27T07:47:21.140Z,472.50
2023-04-27T07:48:21.166Z,466.88
2023-04-27T07:49:21.181Z,483.75
2023-04-27T07:50:21.118Z,455.62
2023-04-27T07:51:21.109Z,472.50
2023-04-27T07:52:21.230Z,450.00
2023-04-27T07:53:21.135Z,427.50
2023-04-27T07:54:21.156Z,444.38
2023-04-27T07:55:21.034Z,421.88
2023-04-27T07:56:21.034Z,360.00
2023-04-27T07:57:21.671Z,326.25
2023-04-27T07:58:21.120Z,399.38
2023-04-27T07:59:23.749Z,489.38
2023-04-27T08:00:20.970Z,579.38
2023-04-27T08:01:21.578Z,2874.38
2023-04-27T08:02:21.823Z,1046.25
2023-04-27T08:03:22.996Z,556.88
2023-04-27T08:04:21.229Z,511.88
2023-04-27T08:05:21.275Z,866.25
2023-04-27T08:06:21.266Z,635.62
2023-04-27T08:07:20.939Z,376.88
2023-04-27T08:08:21.759Z,399.38
2023-04-27T08:09:20.866Z,967.50
2023-04-27T08:10:21.032Z,680.62
2023-04-27T08:11:20.926Z,1080.00
2023-04-27T08:12:20.899Z,517.50
2023-04-27T08:13:20.888Z,545.62
2023-04-27T08:14:20.849Z,517.50
2023-04-27T08:15:20.848Z,461.25
2023-04-27T08:16:21.109Z,405.00
2023-04-27T08:17:20.898Z,354.38
2023-04-27T08:18:20.882Z,309.38
2023-04-27T08:19:22.575Z,258.75
2023-04-27T08:20:20.825Z,230.62
2023-04-27T08:21:20.793Z,219.38
2023-04-27T08:22:20.774Z,219.38
2023-04-27T08:23:20.767Z,230.62
2023-04-27T08:24:20.827Z,236.25
2023-04-27T08:25:20.774Z,236.25
2023-04-27T08:26:20.746Z,241.88
2023-04-27T08:27:21.286Z,292.50
2023-04-27T08:28:20.721Z,354.38
2023-04-27T08:32:52.783Z,258.75
2023-04-27T08:33:52.840Z,303.75
2023-04-27T08:34:52.847Z,258.75
2023-04-27T08:35:52.861Z,241.88
2023-04-27T08:36:53.699Z,230.62
2023-04-27T08:37:52.829Z,208.12
2023-04-27T08:38:52.825Z,174.38
2023-04-27T08:39:52.807Z,168.75
2023-04-27T08:40:52.854Z,118.12
2023-04-27T08:41:52.759Z,106.88
2023-04-27T08:42:52.780Z,112.50
2023-04-27T08:43:52.842Z,118.12
2023-04-27T08:44:52.788Z,118.12
2023-04-27T08:45:52.763Z,118.12
2023-04-27T08:46:53.913Z,118.12
2023-04-27T08:47:53.756Z,112.50
2023-04-27T08:48:53.544Z,106.88
2023-04-27T08:49:52.670Z,112.50
2023-04-27T08:50:52.686Z,118.12
2023-04-27T08:51:53.287Z,135.00
2023-04-27T08:52:52.697Z,146.25
2023-04-27T08:53:54.261Z,140.62
2023-04-27T08:54:52.670Z,135.00
2023-04-27T08:55:53.187Z,146.25
2023-04-27T08:56:52.712Z,168.75
2023-04-27T08:57:52.657Z,202.50
2023-04-27T08:58:52.939Z,275.62
2023-04-27T08:59:53.327Z,247.50
2023-04-27T09:00:52.777Z,253.12
2023-04-27T09:01:54.189Z,168.75
2023-04-27T09:03:07.545Z,146.25
2023-04-27T09:03:53.037Z,135.00
2023-04-27T09:04:52.712Z,135.00
2023-04-27T09:06:04.743Z,140.62
2023-04-27T09:06:52.640Z,157.50
2023-04-27T09:07:52.619Z,163.12
2023-04-27T09:08:52.507Z,174.38
2023-04-27T09:09:52.472Z,185.62
2023-04-27T09:10:52.472Z,180.00
2023-04-27T09:11:52.459Z,174.38
2023-04-27T09:12:53.193Z,180.00
2023-04-27T09:13:52.437Z,185.62
2023-04-27T09:14:52.418Z,174.38
2023-04-27T09:15:52.499Z,163.12
2023-04-27T09:16:52.519Z,157.50
2023-04-27T09:17:52.421Z,163.12
2023-04-27T09:18:52.402Z,157.50
2023-04-27T09:19:52.453Z,157.50
2023-04-27T09:20:52.378Z,163.12
2023-04-27T09:21:52.363Z,174.38
2023-04-27T09:22:52.340Z,191.25
2023-04-27T09:23:52.378Z,196.88
2023-04-27T09:24:52.376Z,208.12
2023-04-27T09:25:52.357Z,219.38
2023-04-27T09:26:52.363Z,202.50
2023-04-27T09:27:52.275Z,191.25
2023-04-27T09:28:52.280Z,191.25
2023-04-27T09:29:52.294Z,196.88
2023-04-27T09:30:52.243Z,180.00
2023-04-27T09:31:52.562Z,168.75
2023-04-27T09:32:52.269Z,163.12
2023-04-27T09:33:52.655Z,163.12
2023-04-27T09:34:52.230Z,163.12
2023-04-27T09:35:53.321Z,174.38
2023-04-27T09:36:52.187Z,185.62
2023-04-27T09:37:52.184Z,196.88
2023-04-27T09:38:52.203Z,202.50
2023-04-27T09:39:52.184Z,208.12
2023-04-27T09:40:52.144Z,202.50
2023-04-27T09:41:52.211Z,202.50
2023-04-27T09:44:24.226Z,236.25
2023-04-27T09:45:25.178Z,213.75
2023-04-27T09:46:25.252Z,191.25
2023-04-27T09:47:25.891Z,180.00
2023-04-27T09:48:25.888Z,174.38
2023-04-27T09:49:25.142Z,174.38
2023-04-27T09:50:25.889Z,180.00
2023-04-27T09:51:25.823Z,185.62
2023-04-27T09:52:25.128Z,202.50
2023-04-27T09:53:25.133Z,213.75
2023-04-27T09:54:25.155Z,230.62
2023-04-27T09:55:25.152Z,247.50
2023-04-27T09:56:25.198Z,270.00
2023-04-27T09:57:25.124Z,275.62
2023-04-27T09:58:25.048Z,275.62
2023-04-27T09:59:25.098Z,236.25
2023-04-27T10:00:25.233Z,253.12
2023-04-27T10:01:25.028Z,298.12
2023-04-27T10:02:25.815Z,320.62
2023-04-27T10:03:25.756Z,253.12
2023-04-27T10:04:25.420Z,247.50
2023-04-27T10:05:25.216Z,236.25
2023-04-27T10:06:26.023Z,219.38
2023-04-27T10:07:25.126Z,219.38
2023-04-27T10:08:24.910Z,202.50
2023-04-27T10:09:24.995Z,196.88
2023-04-27T10:10:25.114Z,196.88
2023-04-27T10:11:24.898Z,191.25
2023-04-27T10:12:24.863Z,180.00
2023-04-27T10:13:24.870Z,174.38
2023-04-27T10:14:24.869Z,174.38
2023-04-27T10:15:24.842Z,157.50
2023-04-27T10:16:24.892Z,151.88
2023-04-27T10:17:24.842Z,146.25
2023-04-27T10:18:24.810Z,185.62
2023-04-27T10:19:24.968Z,168.75
2023-04-27T10:20:24.821Z,123.75
2023-04-27T10:21:24.852Z,118.12
2023-04-27T10:22:24.772Z,146.25
2023-04-27T10:23:24.739Z,123.75
2023-04-27T10:24:24.773Z,157.50
2023-04-27T10:25:24.760Z,157.50
2023-04-27T10:26:24.743Z,157.50
2023-04-27T10:27:24.729Z,151.88
2023-04-27T10:28:24.744Z,151.88
2023-04-27T10:29:24.705Z,151.88
2023-04-27T10:30:24.686Z,151.88
2023-04-27T10:31:24.773Z,151.88
2023-04-27T10:32:24.706Z,151.88
2023-04-27T10:33:24.691Z,151.88
2023-04-27T10:34:24.623Z,157.50
2023-04-27T10:35:24.602Z,157.50
2023-04-27T10:36:24.642Z,168.75
2023-04-27T10:37:24.611Z,191.25
2023-04-27T10:38:24.621Z,225.00
2023-04-27T10:39:32.984Z,258.75
2023-04-27T10:40:24.571Z,286.88
2023-04-27T10:41:24.556Z,292.50
2023-04-27T10:42:24.561Z,281.25
2023-04-27T10:43:24.534Z,270.00
2023-04-27T10:44:24.555Z,196.88
2023-04-27T10:45:24.540Z,168.75
2023-04-27T10:46:24.593Z,151.88
2023-04-27T10:47:24.643Z,135.00
2023-04-27T10:48:24.475Z,129.38
2023-04-27T10:49:24.468Z,123.75
2023-04-27T10:50:24.466Z,118.12
2023-04-27T10:51:24.514Z,123.75
2023-04-27T10:52:24.517Z,118.12
2023-04-27T10:53:24.501Z,118.12
2023-04-27T10:54:24.460Z,112.50
2023-04-27T10:55:24.490Z,112.50
2023-04-27T10:56:24.386Z,106.88
2023-04-27T10:57:24.452Z,106.88
2023-04-27T10:58:26.697Z,112.50
2023-04-27T10:59:24.396Z,112.50
2023-04-27T11:00:24.333Z,118.12
2023-04-27T11:01:24.425Z,129.38
2023-04-27T11:02:24.481Z,140.62
2023-04-27T11:03:25.581Z,157.50
2023-04-27T11:04:24.450Z,168.75
2023-04-27T11:05:24.305Z,180.00
2023-04-27T11:06:24.285Z,191.25
2023-04-27T11:07:24.372Z,185.62
2023-04-27T11:08:24.277Z,180.00
2023-04-27T11:09:24.290Z,180.00
2023-04-27T11:10:24.242Z,185.62
2023-04-27T11:11:24.282Z,180.00
2023-04-27T11:12:24.352Z,174.38
2023-04-27T11:13:24.208Z,180.00
2023-04-27T11:14:24.331Z,185.62
2023-04-27T11:15:24.211Z,191.25
2023-04-27T11:16:24.221Z,196.88
2023-04-27T11:17:24.283Z,208.12
2023-04-27T11:18:24.145Z,225.00
2023-04-27T11:19:24.222Z,225.00
2023-04-27T11:20:24.144Z,219.38
2023-04-27T11:21:24.137Z,213.75
2023-04-27T11:22:24.294Z,208.12
2023-04-27T11:23:24.161Z,202.50
2023-04-27T11:24:24.212Z,202.50
2023-04-27T11:25:24.162Z,202.50
2023-04-27T11:26:24.064Z,202.50
2023-04-27T11:27:24.317Z,196.88
2023-04-27T11:28:24.209Z,202.50
2023-04-27T11:29:24.095Z,208.12
2023-04-27T11:30:24.025Z,208.12
2023-04-27T11:31:24.126Z,202.50
2023-04-27T11:32:24.558Z,196.88
2023-04-27T11:33:24.007Z,213.75
2023-04-27T11:34:24.035Z,253.12
2023-04-27T11:35:23.993Z,264.38
2023-04-27T11:36:24.011Z,286.88
2023-04-27T11:37:24.035Z,286.88
2023-04-27T11:38:24.968Z,326.25
2023-04-27T11:39:24.173Z,298.12
2023-04-27T11:40:24.633Z,354.38
2023-04-27T11:41:23.930Z,371.25
2023-04-27T11:42:23.963Z,376.88
2023-04-27T11:43:23.897Z,382.50
2023-04-27T11:44:23.869Z,365.62
2023-04-27T11:45:23.892Z,320.62
2023-04-27T11:46:23.913Z,320.62
2023-04-27T11:47:23.991Z,309.38
2023-04-27T11:48:23.841Z,270.00
2023-04-27T11:49:23.867Z,253.12
2023-04-27T11:50:23.809Z,236.25
2023-04-27T11:51:23.819Z,236.25
2023-04-27T11:52:23.919Z,247.50
2023-04-27T11:53:23.779Z,258.75
2023-04-27T11:54:23.820Z,270.00
2023-04-27T11:55:24.404Z,275.62
2023-04-27T11:56:23.756Z,275.62
2023-04-27T11:57:23.774Z,281.25
2023-04-27T11:58:23.857Z,286.88
2023-04-27T11:59:23.779Z,292.50
2023-04-27T12:00:24.443Z,303.75
2023-04-27T12:01:34.798Z,315.00
2023-04-27T12:02:23.920Z,315.00
2023-04-27T12:03:24.096Z,309.38
2023-04-27T12:04:23.998Z,303.75
2023-04-27T12:05:23.908Z,298.12
2023-04-27T12:06:32.690Z,281.25
2023-04-27T12:07:23.717Z,275.62
2023-04-27T12:08:23.639Z,275.62
2023-04-27T12:09:23.677Z,270.00
2023-04-27T12:10:23.602Z,264.38
2023-04-27T12:11:23.849Z,270.00
2023-04-27T12:12:23.627Z,275.62
2023-04-27T12:13:23.658Z,286.88
2023-04-27T12:14:24.405Z,292.50
2023-04-27T12:15:23.579Z,275.62
2023-04-27T12:16:23.688Z,270.00
2023-04-27T12:17:23.559Z,253.12
2023-04-27T12:18:23.694Z,247.50
2023-04-27T12:19:23.704Z,236.25
2023-04-27T12:20:23.598Z,225.00
2023-04-27T12:21:23.582Z,219.38
2023-04-27T12:22:23.488Z,202.50
2023-04-27T12:23:24.390Z,191.25
2023-04-27T12:24:24.218Z,185.62
2023-04-27T12:25:24.379Z,185.62
2023-04-27T12:26:23.495Z,185.62
2023-04-27T12:27:23.441Z,185.62
2023-04-27T12:28:23.486Z,185.62
2023-04-27T12:29:23.443Z,191.25
2023-04-27T12:30:23.408Z,191.25
2023-04-27T12:31:26.105Z,191.25
2023-04-27T12:32:23.391Z,196.88
2023-04-27T12:33:23.510Z,202.50
2023-04-27T12:34:23.561Z,213.75
2023-04-27T12:35:23.348Z,225.00
2023-04-27T12:36:23.356Z,230.62
2023-04-27T12:37:25.484Z,241.88
2023-04-27T12:38:23.334Z,253.12
2023-04-27T12:39:23.292Z,264.38
2023-04-27T12:40:23.353Z,264.38
2023-04-27T12:41:23.317Z,264.38
2023-04-27T12:42:23.268Z,258.75
2023-04-27T12:43:23.339Z,264.38
2023-04-27T12:44:23.270Z,275.62
2023-04-27T12:45:23.934Z,286.88
2023-04-27T12:46:23.438Z,292.50
2023-04-27T12:47:38.403Z,292.50
2023-04-27T12:48:23.206Z,275.62
2023-04-27T12:49:23.229Z,253.12
2023-04-27T12:50:23.196Z,253.12
2023-04-27T12:51:23.255Z,225.00
2023-04-27T12:52:23.151Z,219.38
2023-04-27T12:53:23.154Z,219.38
2023-04-27T12:54:23.158Z,225.00
2023-04-27T12:55:32.866Z,230.62